Time;durP1;ratioP1;P1;durP2;ratioP2;P2;SDS_P1;SDS_P2;PMS_P1;PMS_P2;Temp;Humidity;BMP_temperature;BMP_pressure;BME280_temperature;BME280_humidity;BME280_pressure;Samples;Min_cycle;Max_cycle;Signal;HPM_P1;HPM_P2
2022/03/25 00:01:28;;;;;;;;;;;;;;;;;;;;;
2022/03/25 00:04:12;;;;;;;;;;;;;;;;;;;;;
2022/03/25 00:06:48;;;;;;;24.42;8.50;;;;;;;6.95;32.43;93422.72;5036497;28;20049;-89
2022/03/25 00:09:21;;;;;;;18.52;8.52;;;;;;;6.53;32.40;93361.56;5036566;28;20037;-88
2022/03/25 00:12:15;;;;;;;17.52;8.60;;;;;;;6.50;32.54;93359.41;5053815;28;20385;-88
2022/03/25 00:14:46;;;;;;;20.05;8.70;;;;;;;6.88;32.74;93428.88;4999794;28;20068;-89
2022/03/25 00:17:17;;;;;;;15.70;8.18;;;;;;;6.67;33.19;93396.59;5001113;28;20042;-88
2022/03/25 00:20:13;;;;;;;16.30;8.73;;;;;;;6.63;33.59;93394.72;5016344;28;20044;-88
2022/03/25 00:22:59;;;;;;;20.83;8.23;;;;;;;6.43;33.43;93369.19;5032569;28;20030;-88
2022/03/25 00:25:50;;;;;;;18.50;8.85;;;;;;;6.53;33.66;93389.38;5015826;28;20513;-89
2022/03/25 00:28:31;;;;;;;15.90;8.52;;;;;;;6.47;33.36;93385.91;5035308;28;20129;-88
2022/03/25 00:31:10;;;;;;;16.77;8.48;;;;;;;6.24;33.97;93356.47;5019633;28;20486;-88
2022/03/25 00:33:44;;;;;;;16.02;8.23;;;;;;;6.22;34.33;93357.72;5035495;28;20402;-87
2022/03/25 00:36:42;;;;;;;17.25;8.75;;;;;;;6.57;34.41;93413.88;5019959;28;20136;-89
2022/03/25 00:39:19;;;;;;;15.82;8.15;;;;;;;6.16;34.45;93358.66;5020461;28;20048;-88
2022/03/25 00:42:04;;;;;;;;;;;;;;;;;;;;;
2022/03/25 00:44:35;;;;;;;20.70;7.78;;;;;;;6.23;34.83;93380.09;5046178;28;20065;-88
2022/03/25 00:47:13;;;;;;;15.50;8.15;;;;;;;6.26;34.61;93379.63;5053437;28;20036;-89
2022/03/25 00:50:07;;;;;;;15.05;7.93;;;;;;;5.99;34.81;93341.28;5020258;28;20043;-88
2022/03/25 00:52:56;;;;;;;16.83;8.13;;;;;;;6.24;34.60;93379.09;5035751;28;20045;-88
2022/03/25 00:55:39;;;;;;;20.83;8.60;;;;;;;6.24;35.17;93377.25;5035721;28;20039;-88
2022/03/25 00:58:33;;;;;;;;;;;;;;;6.40;35.10;93406.09;5022141;28;20557;-89
2022/03/25 01:01:21;;;;;;;13.98;7.32;;;;;;;5.96;35.81;93338.34;5035129;28;20362;-89
2022/03/25 01:04:07;;;;;;;17.80;7.82;;;;;;;6.08;36.16;93359.06;5023455;28;20040;-88
2022/03/25 01:06:43;;;;;;;17.88;7.90;;;;;;;5.88;36.53;93334.31;5035197;28;20051;-88
2022/03/25 01:09:24;;;;;;;20.15;8.52;;;;;;;5.84;35.90;93330.59;5036706;28;20033;-87
2022/03/25 01:11:58;;;;;;;20.02;8.05;;;;;;;5.89;36.25;93338.47;5039780;28;20493;-91
2022/03/25 01:14:53;;;;;;;16.90;8.43;;;;;;;6.18;36.33;93387.81;5038955;28;20086;-88
2022/03/25 01:17:35;;;;;;;15.10;7.55;;;;;;;5.72;36.22;93316.88;5001642;28;20128;-88
2022/03/25 01:20:26;;;;;;;16.45;7.60;;;;;;;6.04;36.39;93364.72;5042377;28;20029;-88
2022/03/25 01:23:06;;;;;;;13.70;7.32;;;;;;;5.72;36.72;93316.88;5034816;28;20545;-88
2022/03/25 01:25:48;;;;;;;;;;;;;;;;;;;;;
2022/03/25 01:28:32;;;;;;;14.15;7.15;;;;;;;5.98;36.53;93354.50;5037696;28;20048;-89
2022/03/25 01:31:13;;;;;;;12.13;6.75;;;;;;;5.86;37.02;93338.94;5002656;28;20028;-89
2022/03/25 01:33:56;;;;;;;;;;;;;;;;;;;;;
2022/03/25 01:36:25;;;;;;;12.13;6.13;;;;;;;6.08;35.86;93346.06;5034407;28;20091;-88
2022/03/25 01:39:11;;;;;;;12.43;6.63;;;;;;;5.94;36.67;93332.56;5035141;28;20037;-89
2022/03/25 01:42:02;;;;;;;;;;;;;;;;;;;;;
2022/03/25 01:44:44;;;;;;;;;;;;;;;;;;;;;
2022/03/25 01:47:30;;;;;;;14.70;6.13;;;;;;;5.76;36.26;93307.59;5035092;28;20529;-88
2022/03/25 01:50:22;;;;;;;;;;;;;;;;;;;;;
2022/03/25 01:53:36;;;;;;;12.25;5.25;;;;;;;5.79;35.83;93302.72;5052661;28;20037;-88
2022/03/25 01:59:20;;;;;;;9.73;5.15;;;;;;;5.92;35.79;93299.03;5047251;28;20045;-89
2022/03/25 02:01:55;;;;;;;11.05;5.65;;;;;;;5.81;36.64;93294.72;5034938;28;20040;-88
2022/03/25 02:05:02;;;;;;;14.57;5.82;;;;;;;5.84;37.01;93302.00;5036413;28;20036;-89
2022/03/25 02:07:42;;;;;;;10.57;5.60;;;;;;;5.90;37.31;93334.06;5053242;28;20039;-88
2022/03/25 02:10:20;;;;;;;14.50;6.03;;;;;;;5.56;37.26;93288.09;5034695;28;20059;-88
2022/03/25 02:12:51;;;;;;;10.93;5.28;;;;;;;5.69;37.41;93317.34;5034916;28;20047;-88
2022/03/25 02:15:50;;;;;;;;;;;;;;;;;;;;;
2022/03/25 02:18:29;;;;;;;12.90;5.57;;;;;;;5.40;37.68;93296.63;5036853;28;20982;-89
2022/03/25 02:21:13;;;;;;;11.63;5.60;;;;;;;5.18;37.86;93268.75;5056453;28;20044;-88
2022/03/25 02:24:04;;;;;;;11.75;5.55;;;;;;;5.28;37.67;93285.53;5018319;28;20559;-88
2022/03/25 02:26:35;;;;;;;9.38;5.18;;;;;;;5.25;38.13;93283.41;5020383;28;20041;-88
2022/03/25 02:29:18;;;;;;;13.50;5.72;;;;;;;5.20;38.19;93277.09;5037694;28;20029;-88
2022/03/25 02:32:04;;;;;;;;;;;;;;;;;;;;;
2022/03/25 02:34:42;;;;;;;11.55;5.80;;;;;;;5.41;38.08;93308.59;5037684;28;20447;-88
2022/03/25 02:37:20;;;;;;;;;;;;;;;;;;;;;
2022/03/25 02:40:26;;;;;;;;;;;;;;;;;;;;;
2022/03/25 02:43:08;;;;;;;12.68;6.32;;;;;;;5.44;37.62;93315.91;5025812;28;20033;-89
2022/03/25 02:46:05;;;;;;;18.33;6.32;;;;;;;5.12;37.79;93277.47;5022993;28;20059;-88
2022/03/25 02:48:46;;;;;;;12.05;6.50;;;;;;;5.06;38.06;93268.00;5021606;28;20051;-88
2022/03/25 02:51:44;;;;;;;13.23;6.88;;;;;;;5.08;38.54;93267.78;5039497;28;20430;-89
2022/03/25 02:54:45;;;;;;;;;;;;;;;;;;;;;
2022/03/25 02:57:21;;;;;;;12.90;6.22;;;;;;;5.23;37.96;93314.78;5023942;28;20041;-88
2022/03/25 03:00:14;;;;;;;14.77;6.70;;;;;;;5.33;38.28;93335.72;5037776;28;20071;-88
2022/03/25 03:03:05;;;;;;;;;;;;;;;;;;;;;
2022/03/25 03:05:33;;;;;;;14.05;7.07;;;;;;;4.91;37.89;93275.50;5039389;28;20100;-88
2022/03/25 03:08:05;;;;;;;14.57;7.20;;;;;;;5.03;37.97;93294.44;5036276;28;20071;-88
2022/03/25 03:10:42;;;;;;;16.80;7.20;;;;;;;5.19;38.36;93317.03;5038909;28;20508;-88
2022/03/25 03:13:23;;;;;;;;;;;;;;;;;;;;;
2022/03/25 03:16:01;;;;;;;15.00;6.80;;;;;;;5.04;38.27;93285.59;5037547;28;20055;-88
2022/03/25 03:19:09;;;;;;;14.55;7.30;;;;;;;4.98;38.17;93294.34;5022444;28;20041;-88
2022/03/25 03:21:48;;;;;;;16.05;7.40;;;;;;;4.78;38.62;93271.41;5024586;28;20041;-88
2022/03/25 03:24:14;;;;;;;16.73;7.30;;;;;;;4.94;38.22;93296.59;5037527;28;20044;-88
2022/03/25 03:26:57;;;;;;;15.02;7.63;;;;;;;4.74;37.95;93263.28;5038861;28;20052;-88
2022/03/25 03:29:45;;;;;;;14.05;7.50;;;;;;;4.72;38.41;93259.34;5038985;28;20359;-87
2022/03/25 03:32:57;;;;;;;;;;;;;;;;;;;;;
2022/03/25 03:35:36;;;;;;;;;;;;;;;;;;;;;
2022/03/25 03:38:52;;;;;;;;;;;;;;;;;;;;;
2022/03/25 03:41:35;;;;;;;21.80;8.55;;;;;;;4.71;38.05;93258.56;5037253;28;20128;-88
2022/03/25 03:44:08;;;;;;;14.82;7.57;;;;;;;4.95;37.74;93297.38;5037006;28;20079;-89
2022/03/25 03:46:55;;;;;;;;;;;;;;;;;;;;;
2022/03/25 03:49:45;;;;;;;;;;;;;;;;;;;;;
2022/03/25 03:52:28;;;;;;;19.73;8.30;;;;;;;4.64;38.13;93254.50;5054744;28;20044;-87
2022/03/25 03:55:24;;;;;;;23.83;8.57;;;;;;;4.68;38.15;93256.41;5021326;28;20033;-88
2022/03/25 03:58:22;;;;;;;;;;;;;;;;;;;;;
2022/03/25 04:01:01;;;;;;;19.63;8.32;;;;;;;4.74;38.54;93271.06;5037405;28;20065;-88
2022/03/25 04:03:40;;;;;;;20.83;8.35;;;;;;;4.83;38.14;93284.44;5037649;28;20032;-88
2022/03/25 04:06:12;;;;;;;17.63;8.35;;;;;;;4.77;38.69;93275.81;5019697;28;20117;-89
2022/03/25 04:08:56;;;;;;;17.58;8.82;;;;;;;4.61;38.43;93255.75;5049629;28;20029;-87
2022/03/25 04:11:44;;;;;;;;;;;;;;;;;;;;;
2022/03/25 04:14:25;;;;;;;17.05;8.30;;;;;;;4.72;38.09;93278.28;5020838;28;20063;-89
2022/03/25 04:17:19;;;;;;;17.70;8.17;;;;;;;4.59;38.28;93257.78;5034874;28;20060;-89
2022/03/25 04:20:02;;;;;;;17.73;8.25;;;;;;;4.70;38.15;93275.13;5052549;28;20021;-88
2022/03/25 04:22:36;;;;;;;18.42;8.57;;;;;;;4.70;38.43;93274.34;5020408;28;20072;-88
2022/03/25 04:25:16;;;;;;;20.25;9.27;;;;;;;4.57;38.44;93260.63;5019399;28;20029;-89
2022/03/25 04:28:17;;;;;;;18.13;7.97;;;;;;;4.96;37.99;93314.53;5019615;28;20088;-88
2022/03/25 04:30:47;;;;;;;17.13;8.73;;;;;;;4.51;37.90;93248.56;5016194;28;20822;-89
2022/03/25 04:33:28;;;;;;;21.60;8.77;;;;;;;5.01;38.24;93328.38;5018650;28;20050;-88
2022/03/25 04:36:19;;;;;;;;;;;;;;;;;;;;;
2022/03/25 04:39:02;;;;;;;17.45;8.90;;;;;;;4.53;38.10;93253.53;5053849;28;20044;-89
2022/03/25 04:41:40;;;;;;;17.73;9.13;;;;;;;4.83;39.07;93301.84;5051652;28;20036;-89
2022/03/25 04:44:25;;;;;;;;;;;;;;;;;;;;;
2022/03/25 04:46:53;;;;;;;17.83;8.77;;;;;;;4.46;38.59;93258.03;5052878;28;20033;-89
2022/03/25 04:49:31;;;;;;;;;;;;;;;;;;;;;
2022/03/25 04:52:17;;;;;;;20.63;9.15;;;;;;;4.66;37.93;93281.81;5033826;28;20029;-89
2022/03/25 04:55:08;;;;;;;;;;;;;;;;;;;;;
2022/03/25 04:58:16;;;;;;;;;;;;;;;;;;;;;
2022/03/25 05:01:08;;;;;;;20.35;8.45;;;;;;;4.71;38.59;93296.69;5034275;28;20098;-89
2022/03/25 05:03:44;;;;;;;18.92;8.23;;;;;;;4.44;38.44;93254.91;5001386;28;20041;-88
2022/03/25 05:06:19;;;;;;;16.85;8.35;;;;;;;4.55;38.43;93272.25;5015169;28;20483;-88
2022/03/25 05:08:55;;;;;;;18.27;7.93;;;;;;;4.90;38.57;93325.84;5030556;28;20061;-88
2022/03/25 05:11:41;;;;;;;;;;;;;;;;;;;;;
2022/03/25 05:14:55;;;;;;;14.00;6.65;;;;;;;4.76;38.35;93294.97;5049663;28;20422;-92
2022/03/25 05:17:55;;;;;;;13.32;6.30;;;;;;;4.62;38.37;93264.34;5034405;28;20345;-89
2022/03/25 05:20:41;;;;;;;14.10;6.70;;;;;;;4.63;38.15;93264.09;5020118;28;20045;-89
2022/03/25 05:23:31;;;;;;;14.18;6.25;;;;;;;4.64;38.37;93260.50;5016993;28;20071;-88
2022/03/25 05:26:09;;;;;;;12.18;5.85;;;;;;;4.69;38.35;93265.78;5019797;28;20049;-88
2022/03/25 05:28:50;;;;;;;;;;;;;;;;;;;;;
2022/03/25 05:31:19;;;;;;;13.35;6.28;;;;;;;5.00;38.84;93326.81;5018872;28;20063;-90
2022/03/25 05:34:20;;;;;;;;;;;;;;;;;;;;;
2022/03/25 05:37:01;;;;;;;11.20;5.78;;;;;;;4.79;38.09;93278.94;5051278;28;20041;-89
2022/03/25 05:39:39;;;;;;;11.25;5.97;;;;;;;5.19;38.33;93330.00;5012417;28;20140;-89
2022/03/25 05:42:22;;;;;;;12.75;6.00;;;;;;;4.99;38.28;93288.91;5021003;28;20512;-90
2022/03/25 05:45:11;;;;;;;;;;;;;;;;;;;;;
2022/03/25 05:47:52;;;;;;;;;;;;;;;;;;;;;
2022/03/25 05:50:26;;;;;;;11.95;5.85;;;;;;;5.72;38.88;93355.84;5030138;28;20114;-86
2022/03/25 05:52:52;;;;;;;12.50;5.88;;;;;;;5.43;38.70;93289.16;5035939;28;20436;-86
2022/03/25 05:55:18;;;;;;;11.93;5.50;;;;;;;6.01;38.29;93339.22;5036244;28;20066;-88
2022/03/25 05:57:46;;;;;;;9.75;5.32;;;;;;;7.79;35.53;93346.03;5048121;28;20083;-88
2022/03/25 06:00:14;;;;;;;10.07;5.43;;;;;;;9.84;32.28;93347.88;5003270;28;20029;-86
2022/03/25 06:02:43;;;;;;;10.45;5.72;;;;;;;11.41;29.27;93329.50;5052314;28;20075;-86
2022/03/25 06:05:09;;;;;;;8.95;5.40;;;;;;;12.80;27.63;93329.28;5053422;28;20063;-88
2022/03/25 06:07:39;;;;;;;11.48;5.63;;;;;;;13.92;25.76;93332.38;5035053;28;20045;-87
2022/03/25 06:10:07;;;;;;;11.45;5.80;;;;;;;14.95;24.78;93325.44;5020019;28;20450;-88
2022/03/25 06:12:33;;;;;;;11.50;6.05;;;;;;;15.96;23.85;93335.06;5035992;28;20048;-86
2022/03/25 06:14:59;;;;;;;13.35;6.18;;;;;;;16.96;22.75;93338.50;5055016;28;20485;-88
2022/03/25 06:17:26;;;;;;;14.73;6.43;;;;;;;17.72;22.06;93335.59;5031082;28;20131;-86
2022/03/25 06:19:52;;;;;;;12.00;6.60;;;;;;;18.36;21.14;93334.25;5035375;28;20056;-88
2022/03/25 06:22:18;;;;;;;11.00;5.82;;;;;;;18.83;20.93;93337.75;5036012;28;20144;-86
2022/03/25 06:24:44;;;;;;;12.50;6.00;;;;;;;19.42;20.23;93336.28;5052983;28;20514;-88
2022/03/25 06:27:10;;;;;;;20.40;6.57;;;;;;;19.94;19.37;93331.47;5034912;28;20052;-85
2022/03/25 06:29:37;;;;;;;10.93;5.80;;;;;;;20.55;18.63;93330.94;5015455;28;20056;-88
2022/03/25 06:32:07;;;;;;;10.57;5.97;;;;;;;21.22;18.13;93344.22;5047565;28;20490;-87
2022/03/25 06:34:34;;;;;;;11.35;6.05;;;;;;;21.59;17.74;93341.59;5051266;28;20106;-86
2022/03/25 06:37:01;;;;;;;11.40;5.50;;;;;;;22.21;17.42;93342.28;5051722;28;20040;-87
2022/03/25 06:39:26;;;;;;;14.30;5.95;;;;;;;22.59;16.75;93331.16;5034934;28;20098;-87
2022/03/25 06:41:52;;;;;;;12.93;5.80;;;;;;;22.97;16.04;93334.41;5033478;28;20041;-88
2022/03/25 06:44:17;;;;;;;11.55;6.85;;;;;;;23.30;15.07;93344.00;5033068;28;20113;-88
2022/03/25 06:46:43;;;;;;;16.40;6.45;;;;;;;23.35;15.66;93347.22;5017905;28;20471;-85
2022/03/25 06:49:09;;;;;;;12.35;6.78;;;;;;;23.81;15.02;93347.53;5054014;28;20405;-88
2022/03/25 06:51:35;;;;;;;11.88;7.35;;;;;;;24.04;14.76;93306.75;5054589;28;20033;-86
2022/03/25 06:54:01;;;;;;;16.00;9.05;;;;;;;24.26;15.19;93346.19;5037259;28;20493;-85
2022/03/25 06:56:27;;;;;;;15.43;8.50;;;;;;;25.38;14.15;93342.94;5020796;28;20140;-87
2022/03/25 06:58:53;;;;;;;19.27;9.13;;;;;;;25.23;13.53;93334.66;5017205;28;20125;-86
2022/03/25 07:01:19;;;;;;;15.25;8.80;;;;;;;24.01;14.45;93345.66;5035140;28;20475;-87
2022/03/25 07:03:44;;;;;;;14.52;7.70;;;;;;;25.55;13.51;93342.44;5025161;28;20501;-85
2022/03/25 07:06:12;;;;;;;14.32;7.90;;;;;;;26.06;12.60;93349.34;5036927;28;20049;-86
2022/03/25 07:08:39;;;;;;;12.10;7.10;;;;;;;26.57;13.09;93346.19;5019408;28;20123;-86
2022/03/25 07:11:05;;;;;;;15.52;7.72;;;;;;;26.19;13.53;93345.31;5003380;28;20029;-86
2022/03/25 07:13:31;;;;;;;14.95;7.63;;;;;;;24.05;15.20;93345.75;5053869;28;20048;-86
2022/03/25 07:15:57;;;;;;;13.15;7.63;;;;;;;24.20;15.09;93350.25;5016278;28;20517;-85
2022/03/25 07:18:23;;;;;;;18.83;8.48;;;;;;;22.96;16.19;93351.53;5034007;28;20044;-86
2022/03/25 07:20:48;;;;;;;13.52;8.05;;;;;;;23.66;15.54;93351.75;5033720;28;20037;-86
2022/03/25 07:23:14;;;;;;;16.13;8.43;;;;;;;23.75;15.54;93364.94;5035633;28;20497;-86
2022/03/25 07:25:40;;;;;;;14.75;8.00;;;;;;;22.54;16.83;93354.63;5017956;28;20030;-86
2022/03/25 07:28:05;;;;;;;14.68;7.90;;;;;;;21.69;18.01;93367.00;5015792;28;20053;-86
2022/03/25 07:30:31;;;;;;;14.10;7.35;;;;;;;20.77;19.01;93355.66;5052944;28;20069;-86
2022/03/25 07:32:58;;;;;;;14.88;8.18;;;;;;;19.43;19.15;93356.41;5019639;28;20041;-87
2022/03/25 07:35:26;;;;;;;14.85;7.43;;;;;;;18.01;21.03;93366.81;5035764;28;20463;-86
2022/03/25 07:37:52;;;;;;;15.57;7.47;;;;;;;17.67;21.59;93363.00;5035718;28;20044;-86
2022/03/25 07:40:17;;;;;;;15.05;7.43;;;;;;;16.68;23.08;93370.34;5029375;28;20029;-86
2022/03/25 07:42:45;;;;;;;15.60;8.27;;;;;;;16.49;23.03;93353.91;5020522;28;20483;-86
2022/03/25 07:45:13;;;;;;;15.15;8.27;;;;;;;15.69;24.42;93372.78;5054545;28;20112;-87
2022/03/25 07:47:49;;;;;;;17.50;8.57;;;;;;;15.65;24.55;93381.59;5037328;28;20062;-85
2022/03/25 07:50:17;;;;;;;16.38;8.68;;;;;;;15.75;25.02;93373.50;5054555;28;20039;-85
2022/03/25 07:52:43;;;;;;;20.27;8.18;;;;;;;15.84;24.75;93378.88;5054663;28;20064;-86
2022/03/25 07:55:09;;;;;;;15.45;8.20;;;;;;;15.57;24.55;93359.34;5036490;28;20068;-85
2022/03/25 07:57:37;;;;;;;17.55;8.75;;;;;;;15.32;24.63;93365.91;5019777;28;20465;-86
2022/03/25 08:00:11;;;;;;;15.68;7.80;;;;;;;14.62;25.45;93372.94;5054168;28;20477;-85
2022/03/25 08:02:55;;;;;;;15.18;8.52;;;;;;;14.99;24.76;93381.78;5054504;28;20053;-86
2022/03/25 08:05:21;;;;;;;13.57;8.27;;;;;;;14.78;24.72;93384.78;5014579;28;20065;-85
2022/03/25 08:07:49;;;;;;;18.42;8.65;;;;;;;14.90;24.98;93381.69;5036244;28;20167;-85
2022/03/25 08:10:20;;;;;;;14.85;8.57;;;;;;;14.44;24.10;93379.03;5019773;28;20048;-86
2022/03/25 08:12:46;;;;;;;21.17;8.23;;;;;;;14.85;24.80;93365.19;5003556;28;20410;-85
2022/03/25 08:15:11;;;;;;;18.67;8.68;;;;;;;14.90;23.68;93370.38;5019080;28;20123;-86
2022/03/25 08:17:55;;;;;;;16.58;8.40;;;;;;;15.13;23.43;93377.34;5054409;28;20371;-88
2022/03/25 08:20:23;;;;;;;14.63;8.48;;;;;;;14.98;23.43;93381.03;5054019;28;20087;-85
2022/03/25 08:22:48;;;;;;;14.82;8.07;;;;;;;15.01;23.45;93379.66;5035854;28;20037;-85
2022/03/25 08:28:00;;;;;;;15.52;8.23;;;;;;;14.13;22.63;93380.25;5053913;28;20048;-86
2022/03/25 08:30:31;;;;;;;14.07;7.60;;;;;;;14.16;24.29;93374.44;5053996;28;20108;-85
2022/03/25 08:32:57;;;;;;;17.50;8.05;;;;;;;14.65;24.52;93377.63;5036057;28;20044;-85
2022/03/25 08:35:27;;;;;;;16.90;9.18;;;;;;;14.48;23.22;93387.91;5002750;28;20371;-85
2022/03/25 08:37:54;;;;;;;15.90;8.63;;;;;;;14.22;23.55;93382.25;5013752;28;20033;-88
2022/03/25 08:40:21;;;;;;;20.55;9.27;;;;;;;14.06;24.28;93373.78;5072776;28;20041;-86
2022/03/25 08:42:47;;;;;;;23.38;8.88;;;;;;;14.08;25.51;93363.75;5037565;28;20043;-85
2022/03/25 08:45:15;;;;;;;14.60;8.50;;;;;;;14.35;23.91;93384.94;5017183;28;20040;-87
2022/03/25 08:47:41;;;;;;;23.10;9.40;;;;;;;14.41;24.66;93377.75;5031684;28;20026;-87
2022/03/25 08:50:09;;;;;;;19.38;9.70;;;;;;;14.14;24.61;93386.31;5034678;28;20131;-85
2022/03/25 08:52:36;;;;;;;18.50;10.20;;;;;;;14.20;23.32;93387.00;5050042;28;20033;-86
2022/03/25 08:55:02;;;;;;;18.13;9.73;;;;;;;14.45;24.01;93388.47;5008469;28;20037;-86
2022/03/25 08:57:28;;;;;;;23.40;9.70;;;;;;;14.67;23.32;93399.22;5021646;28;20037;-85
2022/03/25 08:59:54;;;;;;;17.33;9.63;;;;;;;14.58;23.71;93387.78;5035280;28;20044;-84
2022/03/25 09:02:19;;;;;;;18.05;9.88;;;;;;;14.63;23.77;93385.03;5018903;28;20410;-84
2022/03/25 09:04:46;;;;;;;18.00;9.27;;;;;;;14.68;23.28;93377.06;5035507;28;20037;-85
2022/03/25 09:07:12;;;;;;;20.27;9.93;;;;;;;14.42;23.75;93396.97;5040455;28;20036;-84
2022/03/25 09:09:38;;;;;;;19.17;10.00;;;;;;;14.53;25.45;93378.06;5052150;28;20041;-86
2022/03/25 09:12:04;;;;;;;18.25;9.48;;;;;;;14.71;26.89;93396.78;5053355;28;20119;-84
2022/03/25 09:14:29;;;;;;;23.88;9.82;;;;;;;14.84;24.99;93389.97;5052832;28;20102;-85
2022/03/25 09:16:55;;;;;;;17.33;9.85;;;;;;;14.32;24.97;93372.34;5052926;28;20033;-86
2022/03/25 09:19:21;;;;;;;17.55;9.20;;;;;;;14.48;24.87;93375.53;5035337;28;20044;-84
2022/03/25 09:21:46;;;;;;;19.60;9.77;;;;;;;14.46;25.17;93395.31;5019057;28;20044;-84
2022/03/25 09:24:12;;;;;;;16.15;9.38;;;;;;;14.64;24.21;93397.16;5018881;28;20064;-85
2022/03/25 09:26:38;;;;;;;19.70;10.05;;;;;;;14.68;23.93;93394.72;5021372;28;20047;-85
2022/03/25 09:29:04;;;;;;;17.05;9.40;;;;;;;14.70;24.86;93384.66;5059643;28;20029;-84
2022/03/25 09:31:30;;;;;;;21.98;10.18;;;;;;;13.92;24.61;93389.53;5059893;28;20037;-86
2022/03/25 09:35:08;;;;;;;17.77;9.30;;;;;;;14.51;23.95;93387.34;5025205;28;20069;-84
2022/03/25 09:36:41;;;;;;;18.98;10.45;;;;;;;14.52;24.34;93365.16;5044215;28;20051;-84
2022/03/25 09:39:08;;;;;;;16.42;9.35;;;;;;;15.13;23.76;93397.63;5061092;28;20119;-84
2022/03/25 09:41:35;;;;;;;17.20;9.88;;;;;;;15.55;24.39;93393.16;5041738;28;20041;-84
2022/03/25 09:44:01;;;;;;;21.17;10.80;;;;;;;15.34;23.63;93387.50;5058787;28;20029;-84
2022/03/25 09:46:27;;;;;;;19.00;10.48;;;;;;;15.31;24.49;93393.34;5061836;28;20037;-84
2022/03/25 09:48:53;;;;;;;19.38;10.25;;;;;;;15.29;24.92;93383.09;5053776;28;20032;-84
2022/03/25 09:51:19;;;;;;;18.15;9.60;;;;;;;14.33;25.89;93370.50;5025260;28;20041;-85
2022/03/25 09:53:47;;;;;;;23.65;10.43;;;;;;;14.90;24.89;93388.81;5040663;28;20025;-85
2022/03/25 09:56:14;;;;;;;19.05;10.77;;;;;;;15.40;23.90;93381.03;5059042;28;20552;-85
2022/03/25 09:58:40;;;;;;;18.85;10.95;;;;;;;15.64;24.39;93375.53;5024554;28;20099;-85
2022/03/25 10:01:06;;;;;;;21.17;10.75;;;;;;;15.94;24.20;93374.16;5059705;28;20048;-85
2022/03/25 10:03:37;;;;;;;31.23;11.45;;;;;;;15.71;23.47;93361.97;5060458;28;20425;-85
2022/03/25 10:06:07;;;;;;;19.83;10.35;;;;;;;15.18;23.75;93368.53;5058446;28;20029;-85
2022/03/25 10:08:33;;;;;;;19.02;10.88;;;;;;;14.89;24.43;93377.50;5040928;28;20037;-85
2022/03/25 10:11:18;;;;;;;17.33;9.30;;;;;;;14.76;24.70;93381.66;5060648;28;20029;-85
2022/03/25 10:13:44;;;;;;;21.58;12.70;;;;;;;14.66;24.14;93373.13;5040830;28;20389;-84
2022/03/25 10:16:27;;;;;;;23.65;12.38;;;;;;;14.90;23.72;93379.03;5024516;28;20119;-85
2022/03/25 10:18:53;;;;;;;;;;;;;;;14.95;23.51;93380.81;5059401;28;20041;-83
2022/03/25 10:21:19;;;;;;;24.48;12.27;;;;;;;14.57;22.63;93355.38;5058133;28;19912;-85
2022/03/25 10:23:45;;;;;;;20.52;12.02;;;;;;;14.97;24.05;93347.03;5024853;28;20107;-85
2022/03/25 10:26:11;;;;;;;23.02;11.43;;;;;;;15.33;23.29;93354.25;5058511;28;20037;-85
2022/03/25 10:28:42;;;;;;;18.00;10.18;;;;;;;15.25;23.35;93349.69;5040707;28;20127;-86
2022/03/25 10:31:11;;;;;;;18.67;11.18;;;;;;;15.45;22.77;93365.13;5058639;28;20107;-85
2022/03/25 10:34:00;;;;;;;17.92;10.05;;;;;;;15.69;23.57;93374.66;5024556;28;20072;-86
2022/03/25 10:36:26;;;;;;;19.08;11.02;;;;;;;15.85;22.66;93367.22;5059056;28;20028;-85
2022/03/25 10:39:06;;;;;;;17.65;10.35;;;;;;;15.43;22.18;93369.13;5055181;28;20051;-85
2022/03/25 10:41:43;;;;;;;21.48;11.50;;;;;;;15.91;22.94;93363.41;5037949;28;20124;-85
2022/03/25 10:44:10;;;;;;;17.17;10.80;;;;;;;15.65;21.67;93381.59;5055697;28;20041;-86
2022/03/25 10:46:53;;;;;;;19.02;9.90;;;;;;;15.60;22.67;93362.19;5037944;28;20033;-85
2022/03/25 10:49:20;;;;;;;19.67;10.85;;;;;;;15.29;22.39;93363.84;5040131;28;20051;-84
2022/03/25 10:51:53;;;;;;;18.63;10.43;;;;;;;16.14;22.85;93364.22;5078560;28;20047;-86
2022/03/25 10:54:23;;;;;;;20.42;10.00;;;;;;;15.69;21.84;93366.75;5039161;28;20046;-87
2022/03/25 10:56:51;;;;;;;16.30;9.77;;;;;;;15.38;21.13;93372.66;5035484;28;20053;-84
2022/03/25 10:59:24;;;;;;;17.38;10.20;;;;;;;15.64;21.89;93370.25;5034213;28;20037;-84
2022/03/25 11:01:52;;;;;;;19.73;10.65;;;;;;;15.51;21.75;93366.56;5034223;28;20116;-84
2022/03/25 11:04:18;;;;;;;19.90;10.40;;;;;;;15.61;22.06;93355.81;5020375;28;20051;-85
2022/03/25 11:06:47;;;;;;;23.33;11.05;;;;;;;15.29;21.79;93367.28;5054651;28;20044;-85
2022/03/25 11:09:15;;;;;;;20.58;10.30;;;;;;;15.38;21.52;93359.47;5054806;28;20070;-84
2022/03/25 11:11:43;;;;;;;20.88;9.77;;;;;;;15.70;21.61;93341.94;5054841;28;20494;-84
2022/03/25 11:14:09;;;;;;;20.80;10.68;;;;;;;16.09;21.82;93354.53;5033815;28;20132;-85
2022/03/25 11:16:46;;;;;;;20.50;11.00;;;;;;;15.88;22.34;93359.50;5035011;28;20084;-85
2022/03/25 11:19:13;;;;;;;20.27;9.95;;;;;;;16.11;21.44;93362.19;5035123;28;20037;-87
2022/03/25 11:21:44;;;;;;;22.10;11.65;;;;;;;15.81;21.66;93324.81;5034949;28;20041;-85
2022/03/25 11:24:21;;;;;;;22.77;10.65;;;;;;;15.41;22.09;93362.28;5033687;28;20112;-85
2022/03/25 11:26:50;;;;;;;19.25;11.15;;;;;;;15.88;22.95;93348.16;5038337;28;20052;-88
2022/03/25 11:29:20;;;;;;;22.98;11.00;;;;;;;15.73;22.76;93341.34;5037049;28;20029;-85
2022/03/25 11:32:14;;;;;;;18.70;10.27;;;;;;;16.02;22.09;93347.03;5054393;28;20037;-86
2022/03/25 11:34:42;;;;;;;16.58;9.95;;;;;;;16.02;21.45;93333.84;5036828;28;20040;-85
2022/03/25 11:37:21;;;;;;;19.42;10.40;;;;;;;16.21;21.77;93346.09;5056596;28;20500;-85
2022/03/25 11:39:48;;;;;;;22.50;10.55;;;;;;;16.21;21.86;93335.50;5056648;28;20067;-85
2022/03/25 11:42:40;;;;;;;20.95;10.80;;;;;;;15.86;21.16;93329.97;5056989;28;20048;-85
2022/03/25 11:45:20;;;;;;;21.70;10.00;;;;;;;16.16;21.38;93322.44;5055607;28;20032;-85
2022/03/25 11:48:04;;;;;;;19.00;10.65;;;;;;;15.81;21.27;93333.50;5056221;28;20044;-86
2022/03/25 11:50:41;;;;;;;20.08;11.38;;;;;;;16.23;21.29;93307.75;5074625;28;20086;-85
2022/03/25 11:53:13;;;;;;;19.75;9.20;;;;;;;16.41;21.17;93323.69;5073779;28;20036;-85
2022/03/25 11:56:09;;;;;;;18.27;10.43;;;;;;;16.32;21.28;93318.34;5070864;28;20095;-85
2022/03/25 11:58:54;;;;;;;17.08;9.70;;;;;;;16.07;21.09;93314.44;5053976;28;20036;-85
2022/03/25 12:01:20;;;;;;;20.80;10.48;;;;;;;16.15;21.45;93320.88;5035999;28;20067;-86
2022/03/25 12:03:53;;;;;;;16.52;8.75;;;;;;;16.11;21.33;93301.44;5036041;28;20482;-85
2022/03/25 12:06:26;;;;;;;17.73;10.15;;;;;;;16.41;21.24;93308.63;5036070;28;20037;-85
2022/03/25 12:08:57;;;;;;;18.92;9.70;;;;;;;15.85;21.22;93312.59;5035933;28;20045;-86
2022/03/25 12:11:55;;;;;;;17.13;10.18;;;;;;;16.41;21.76;93308.63;5053172;28;20483;-86
2022/03/25 12:14:26;;;;;;;18.23;9.63;;;;;;;16.01;22.29;93290.03;5035848;28;20059;-85
2022/03/25 12:16:53;;;;;;;23.13;10.85;;;;;;;16.27;21.27;93291.28;5053614;28;20040;-85
2022/03/25 12:19:28;;;;;;;19.42;10.77;;;;;;;16.26;21.75;93298.44;5035468;28;20033;-86
2022/03/25 12:21:55;;;;;;;16.45;9.52;;;;;;;16.57;21.92;93273.88;5035038;28;20033;-85
2022/03/25 12:24:21;;;;;;;20.33;10.63;;;;;;;16.67;21.42;93278.13;5053582;28;20052;-85
2022/03/25 12:26:55;;;;;;;17.95;9.95;;;;;;;16.53;21.90;93283.53;5035907;28;20061;-85
2022/03/25 12:29:28;;;;;;;19.48;10.82;;;;;;;16.52;20.65;93285.34;5060161;28;20029;-85
2022/03/25 12:31:54;;;;;;;18.35;8.40;;;;;;;16.33;20.09;93263.66;5072868;28;20037;-91
2022/03/25 12:34:40;;;;;;;17.48;9.15;;;;;;;16.22;22.22;93284.25;5055511;28;20063;-87
2022/03/25 12:37:09;;;;;;;19.70;9.02;;;;;;;16.74;20.63;93276.59;5073772;28;20119;-87
2022/03/25 12:39:35;;;;;;;15.25;9.30;;;;;;;16.37;21.08;93265.41;5056526;28;20067;-86
2022/03/25 12:42:11;;;;;;;15.65;8.93;;;;;;;16.35;20.17;93275.50;5052688;28;20072;-85
2022/03/25 12:44:36;;;;;;;18.52;9.70;;;;;;;16.65;20.76;93275.78;5035313;28;20417;-87
2022/03/25 12:47:03;;;;;;;17.38;9.32;;;;;;;16.65;20.31;93270.50;5052753;28;20120;-86
2022/03/25 12:49:30;;;;;;;15.82;8.52;;;;;;;16.31;20.52;93282.44;5047158;28;20429;-85
2022/03/25 12:51:57;;;;;;;18.75;9.18;;;;;;;16.53;20.19;93244.66;5072827;28;20032;-86
2022/03/25 12:54:23;;;;;;;15.18;8.50;;;;;;;16.57;20.46;93268.59;5057807;28;20159;-85
2022/03/25 12:57:03;;;;;;;17.75;9.18;;;;;;;16.53;20.16;93267.66;5035677;28;20095;-86